TimeMST,TemperatureF,Dew PointF,Humidity,Sea Level PressureIn,VisibilityMPH,Wind Direction,Wind SpeedMPH,Gust SpeedMPH,PrecipitationIn,Events,Conditions,WindDirDegrees,DateUTC
12:09 AM,46.8,24.4,42,29.67,10.0,West,5.8,-,N/A,,Clear,280,2013-03-04 07:09:00
12:28 AM,41.5,25.5,53,29.68,10.0,Calm,Calm,-,N/A,,Clear,0,2013-03-04 07:28:00
12:48 AM,40.5,25.7,56,29.68,10.0,Calm,Calm,-,N/A,,Clear,0,2013-03-04 07:48:00
1:09 AM,37.0,26.6,66,29.68,10.0,Calm,Calm,-,N/A,,Clear,0,2013-03-04 08:09:00
1:29 AM,38.8,26.2,61,29.68,10.0,Calm,Calm,-,N/A,,Clear,0,2013-03-04 08:29:00
1:48 AM,41.4,25.5,53,29.68,10.0,West,4.6,-,N/A,,Clear,280,2013-03-04 08:48:00
2:09 AM,46.9,24.6,42,29.68,10.0,West,3.5,-,N/A,,Clear,260,2013-03-04 09:09:00
2:29 AM,44.6,24.6,45,29.68,10.0,Calm,Calm,-,N/A,,Clear,0,2013-03-04 09:29:00
2:50 AM,42.3,25.2,51,29.67,10.0,Calm,Calm,-,N/A,,Clear,0,2013-03-04 09:50:00
3:08 AM,40.3,25.9,56,29.68,10.0,Calm,Calm,-,N/A,,Clear,0,2013-03-04 10:08:00
3:28 AM,38.3,26.6,63,29.69,10.0,WSW,3.5,-,N/A,,Clear,240,2013-03-04 10:28:00
3:48 AM,41.2,27.3,58,29.70,10.0,East,11.5,-,N/A,,Clear,80,2013-03-04 10:48:00
4:08 AM,32.5,28.4,85,29.74,10.0,ENE,8.1,17.3,N/A,,Clear,60,2013-03-04 11:08:00
4:31 AM,31.1,27.3,86,29.76,10.0,NNE,10.4,-,N/A,,Scattered Clouds,20,2013-03-04 11:31:00
4:49 AM,30.9,27.3,86,29.80,10.0,NNE,4.6,-,N/A,,Mostly Cloudy,20,2013-03-04 11:49:00
5:09 AM,30.6,27.0,86,29.81,10.0,NNE,9.2,-,N/A,,Overcast,30,2013-03-04 12:09:00
5:29 AM,30.2,26.6,86,29.83,10.0,Calm,Calm,-,N/A,,Overcast,0,2013-03-04 12:29:00
5:49 AM,30.2,25.5,83,29.82,10.0,Calm,Calm,-,N/A,,Mostly Cloudy,0,2013-03-04 12:49:00
6:11 AM,29.3,24.8,83,29.83,10.0,Calm,Calm,-,N/A,,Scattered Clouds,0,2013-03-04 13:11:00
6:30 AM,28.2,23.7,83,29.84,10.0,East,4.6,-,N/A,,Scattered Clouds,100,2013-03-04 13:30:00
6:50 AM,28.2,23.7,83,29.84,10.0,Calm,Calm,-,N/A,,Scattered Clouds,0,2013-03-04 13:50:00
7:11 AM,28.9,24.8,84,29.85,10.0,SSE,4.6,-,N/A,,Scattered Clouds,150,2013-03-04 14:11:00
7:28 AM,30.2,25.0,81,29.85,10.0,SE,5.8,-,N/A,,Mostly Cloudy,140,2013-03-04 14:28:00
7:50 AM,30.7,23.9,76,29.85,10.0,SE,5.8,-,N/A,,Overcast,140,2013-03-04 14:50:00
8:11 AM,31.8,24.8,75,29.86,10.0,SE,9.2,-,N/A,,Overcast,140,2013-03-04 15:11:00
8:30 AM,31.8,22.6,69,29.86,10.0,ESE,9.2,-,N/A,,Overcast,120,2013-03-04 15:30:00
8:50 AM,32.0,21.4,65,29.85,10.0,ESE,9.2,-,N/A,,Overcast,120,2013-03-04 15:50:00
9:11 AM,32.2,21.4,64,29.84,10.0,ESE,10.4,-,N/A,,Overcast,110,2013-03-04 16:11:00
9:29 AM,32.5,21.7,64,29.85,10.0,ENE,5.8,-,N/A,,Overcast,70,2013-03-04 16:29:00
9:50 AM,32.9,21.9,64,29.84,10.0,ENE,9.2,-,N/A,,Overcast,70,2013-03-04 16:50:00
10:10 AM,33.3,22.8,66,29.84,10.0,East,6.9,-,N/A,,Overcast,90,2013-03-04 17:10:00
10:32 AM,33.8,23.5,66,29.84,10.0,ENE,5.8,-,N/A,,Overcast,70,2013-03-04 17:32:00
10:50 AM,34.2,24.1,67,29.84,10.0,East,6.9,-,N/A,,Overcast,90,2013-03-04 17:50:00
11:11 AM,34.7,24.3,66,29.84,10.0,ENE,10.4,-,N/A,,Overcast,60,2013-03-04 18:11:00
11:52 AM,32.0,22.1,67,29.86,10.0,NE,13.8,-,N/A,,Overcast,40,2013-03-04 18:52:00
12:11 PM,31.1,22.5,70,29.88,10.0,NNE,15.0,19.6,N/A,,Overcast,30,2013-03-04 19:11:00
12:30 PM,30.0,23.9,78,29.89,1.2,NNE,10.4,-,N/A,Snow,Light Snow,30,2013-03-04 19:30:00
12:50 PM,28.8,26.6,92,29.90,0.5,North,5.8,-,N/A,Snow,Snow,10,2013-03-04 19:50:00
1:10 PM,28.8,27.5,95,29.93,0.5,NNW,3.5,-,N/A,Snow,Snow,340,2013-03-04 20:10:00
1:31 PM,28.8,27.9,96,29.94,0.2,North,4.6,-,N/A,Snow,Snow,10,2013-03-04 20:31:00
1:51 PM,27.9,26.6,95,29.92,0.5,NNE,13.8,-,N/A,Snow,Snow,20,2013-03-04 20:51:00
2:10 PM,28.0,26.6,94,29.94,0.5,NE,12.7,-,N/A,Snow,Snow,40,2013-03-04 21:10:00
2:31 PM,27.9,25.9,92,29.96,2.0,NNE,4.6,10.4,N/A,Snow,Light Snow,30,2013-03-04 21:31:00
2:50 PM,28.2,25.7,90,29.97,10.0,North,3.5,-,N/A,,Overcast,10,2013-03-04 21:50:00
3:10 PM,28.4,24.8,86,29.99,1.2,Calm,Calm,-,N/A,Snow,Light Snow,0,2013-03-04 22:10:00
3:31 PM,28.9,24.3,83,29.98,10.0,SSE,3.5,-,N/A,,Mostly Cloudy,150,2013-03-04 22:31:00
3:50 PM,30.2,24.1,78,29.99,10.0,SE,3.5,-,N/A,,Clear,140,2013-03-04 22:50:00
4:10 PM,30.0,23.7,77,30.01,10.0,South,5.8,-,N/A,,Clear,180,2013-03-04 23:10:00
4:30 PM,29.1,23.7,80,30.02,10.0,South,3.5,-,N/A,,Mostly Cloudy,180,2013-03-04 23:30:00
4:51 PM,29.7,23.4,77,30.03,10.0,SW,3.5,-,N/A,,Overcast,220,2013-03-04 23:51:00
5:10 PM,29.8,22.5,74,30.05,10.0,South,4.6,-,N/A,,Scattered Clouds,190,2013-03-05 00:10:00
5:30 PM,28.2,22.1,78,30.05,10.0,Calm,Calm,-,N/A,,Clear,0,2013-03-05 00:30:00
5:51 PM,26.1,21.7,84,30.07,10.0,Calm,Calm,-,N/A,,Scattered Clouds,0,2013-03-05 00:51:00
6:10 PM,23.0,19.9,88,30.08,10.0,Calm,Calm,-,N/A,,Scattered Clouds,0,2013-03-05 01:10:00
6:31 PM,19.0,17.6,94,30.09,10.0,SSW,3.5,-,N/A,,Clear,210,2013-03-05 01:31:00
6:50 PM,18.9,17.2,93,30.10,10.0,South,4.6,-,N/A,,Clear,190,2013-03-05 01:50:00
7:09 PM,20.3,18.1,91,30.11,10.0,SW,4.6,-,N/A,,Clear,220,2013-03-05 02:09:00
7:31 PM,18.1,16.2,92,30.12,10.0,South,4.6,-,N/A,,Clear,170,2013-03-05 02:31:00
7:51 PM,19.6,14.5,81,30.13,10.0,Calm,Calm,-,N/A,,Clear,0,2013-03-05 02:51:00
8:10 PM,16.9,14.2,89,30.14,10.0,Calm,Calm,-,N/A,,Clear,0,2013-03-05 03:10:00
8:30 PM,18.1,13.8,83,30.15,10.0,South,6.9,-,N/A,,Clear,190,2013-03-05 03:30:00
8:51 PM,20.1,12.9,74,30.17,10.0,SSE,6.9,-,N/A,,Clear,150,2013-03-05 03:51:00
9:10 PM,21.4,12.2,68,30.17,10.0,SSE,8.1,-,N/A,,Clear,160,2013-03-05 04:10:00
9:30 PM,20.8,12.0,69,30.18,10.0,SSE,4.6,-,N/A,,Clear,150,2013-03-05 04:30:00
9:51 PM,20.3,10.8,67,30.19,10.0,SE,5.8,-,N/A,,Clear,140,2013-03-05 04:51:00
10:10 PM,18.3,9.0,67,30.19,10.0,Calm,Calm,-,N/A,,Clear,0,2013-03-05 05:10:00
10:30 PM,13.3,8.1,80,30.20,10.0,Calm,Calm,-,N/A,,Clear,0,2013-03-05 05:30:00
10:50 PM,14.5,8.8,78,30.20,10.0,Calm,Calm,-,N/A,,Clear,0,2013-03-05 05:50:00
11:10 PM,13.5,8.4,80,30.20,10.0,Calm,Calm,-,N/A,,Clear,0,2013-03-05 06:10:00
11:30 PM,13.6,9.7,84,30.20,10.0,Calm,Calm,-,N/A,,Clear,0,2013-03-05 06:30:00
11:48 PM,14.4,10.0,83,30.21,10.0,Calm,Calm,-,N/A,,Clear,0,2013-03-05 06:48:00